METAR Data
IDs: Format: Raw Decoded Include TAF

Data at: 0832 UTC 18 Sep 2021

KTQE 180754Z AUTO 36005KT 10SM FEW075 11/09 A3021 RMK AO2 SLP224 T01110094